createdAt,value
2023-05-19T00:00:57.002Z,81.43
2023-05-19T00:01:57.055Z,81.32
2023-05-19T00:02:57.114Z,81.22
2023-05-19T00:03:57.079Z,80.85
2023-05-19T00:04:57.051Z,81.05
2023-05-19T00:05:57.129Z,81.15
2023-05-19T00:06:57.091Z,81.05
2023-05-19T00:07:57.132Z,81.46
2023-05-19T00:08:57.120Z,81.77
2023-05-19T00:09:57.130Z,81.57
2023-05-19T00:10:57.143Z,81.36
2023-05-19T00:11:57.164Z,81.46
2023-05-19T00:12:57.184Z,81.57
2023-05-19T00:13:57.190Z,82.08
2023-05-19T00:14:57.207Z,81.77
2023-05-19T00:15:57.268Z,82.08
2023-05-19T00:16:57.255Z,81.87
2023-05-19T00:17:57.297Z,81.46
2023-05-19T00:18:57.381Z,81.67
2023-05-19T00:19:57.279Z,82.28
2023-05-19T00:20:57.290Z,82.08
2023-05-19T00:21:57.320Z,82.08
2023-05-19T00:22:57.312Z,81.77
2023-05-19T00:23:57.332Z,82.08
2023-05-19T00:24:57.338Z,82.08
2023-05-19T00:25:57.357Z,81.87
2023-05-19T00:26:57.371Z,81.77
2023-05-19T00:27:57.390Z,81.67
2023-05-19T00:28:57.395Z,81.87
2023-05-19T00:29:57.421Z,81.46
2023-05-19T00:30:57.443Z,82.08
2023-05-19T00:31:57.475Z,81.87
2023-05-19T00:32:57.496Z,82.18
2023-05-19T00:33:57.487Z,81.98
2023-05-19T00:34:57.484Z,82.08
2023-05-19T00:35:57.523Z,82.28
2023-05-19T00:36:57.504Z,82.18
2023-05-19T00:37:57.522Z,82.39
2023-05-19T00:38:57.565Z,82.59
2023-05-19T00:39:57.551Z,83.31
2023-05-19T00:40:57.586Z,83.00
2023-05-19T00:41:57.573Z,82.59
2023-05-19T00:42:57.588Z,82.18
2023-05-19T00:43:57.607Z,82.59
2023-05-19T00:44:57.635Z,82.08
2023-05-19T00:45:57.667Z,82.59
2023-05-19T00:46:57.789Z,82.18
2023-05-19T00:47:57.712Z,82.28
2023-05-19T00:48:57.681Z,82.18
2023-05-19T00:49:57.712Z,82.18
2023-05-19T00:50:57.709Z,82.39
2023-05-19T00:51:57.730Z,82.08
2023-05-19T00:52:57.736Z,82.28
2023-05-19T00:53:57.769Z,82.08
2023-05-19T00:54:57.802Z,82.08
2023-05-19T00:55:57.797Z,82.18
2023-05-19T00:56:57.802Z,81.98
2023-05-19T00:57:57.836Z,82.08
2023-05-19T00:58:57.840Z,82.59
2023-05-19T00:59:57.853Z,82.32
2023-05-19T01:00:57.935Z,82.32
2023-05-19T01:01:57.887Z,82.63
2023-05-19T01:02:57.971Z,82.53
2023-05-19T01:03:58.007Z,82.53
2023-05-19T01:04:57.941Z,82.42
2023-05-19T01:05:57.949Z,82.01
2023-05-19T01:06:57.966Z,82.08
2023-05-19T01:07:57.987Z,82.22
2023-05-19T01:08:57.990Z,82.01
2023-05-19T01:09:58.007Z,82.22
2023-05-19T01:10:58.121Z,82.32
2023-05-19T01:11:58.026Z,82.53
2023-05-19T01:12:58.061Z,82.53
2023-05-19T01:13:58.055Z,82.63
2023-05-19T01:14:58.072Z,82.73
2023-05-19T01:15:58.100Z,82.93
2023-05-19T01:16:58.123Z,83.04
2023-05-19T01:17:58.170Z,83.25
2023-05-19T01:18:58.181Z,82.83
2023-05-19T01:19:58.148Z,82.73
2023-05-19T01:20:58.157Z,82.83
2023-05-19T01:21:58.169Z,82.93
2023-05-19T01:22:58.205Z,82.63
2023-05-19T01:23:58.192Z,82.93
2023-05-19T01:24:58.221Z,83.04
2023-05-19T01:25:58.223Z,83.04
2023-05-19T01:26:58.270Z,83.45
2023-05-19T01:27:58.255Z,83.34
2023-05-19T01:28:58.286Z,82.93
2023-05-19T01:29:58.294Z,83.14
2023-05-19T01:30:58.337Z,82.93
2023-05-19T01:31:58.374Z,83.14
2023-05-19T01:32:58.391Z,83.45
2023-05-19T01:33:58.366Z,83.55
2023-05-19T01:34:58.378Z,83.45
2023-05-19T01:35:58.436Z,83.55
2023-05-19T01:36:58.424Z,83.65
2023-05-19T01:37:58.431Z,83.76
2023-05-19T01:38:58.448Z,83.55
2023-05-19T01:39:58.457Z,83.76
2023-05-19T01:40:58.499Z,83.76
2023-05-19T01:41:58.486Z,83.90
2023-05-19T01:42:58.509Z,84.00
2023-05-19T01:43:58.525Z,84.10
2023-05-19T01:44:58.560Z,84.61
2023-05-19T01:45:58.818Z,84.20
2023-05-19T01:46:58.569Z,84.52
2023-05-19T01:47:58.653Z,84.41
2023-05-19T01:48:58.609Z,84.61
2023-05-19T01:49:58.637Z,84.52
2023-05-19T01:50:58.665Z,84.61
2023-05-19T01:51:58.651Z,84.52
2023-05-19T01:52:58.679Z,84.92
2023-05-19T01:53:58.696Z,84.72
2023-05-19T01:54:58.739Z,84.61
2023-05-19T01:55:58.716Z,84.20
2023-05-19T01:57:04.737Z,84.82
2023-05-19T01:57:58.747Z,84.72
2023-05-19T01:58:58.788Z,85.03
2023-05-19T01:59:58.794Z,85.03
2023-05-19T02:00:58.871Z,85.03
2023-05-19T02:01:58.817Z,84.92
2023-05-19T02:02:58.896Z,84.72
2023-05-19T02:03:58.923Z,84.92
2023-05-19T02:04:58.873Z,85.03
2023-05-19T02:05:58.899Z,85.23
2023-05-19T02:06:58.914Z,85.23
2023-05-19T02:07:58.931Z,85.03
2023-05-19T02:08:58.974Z,85.13
2023-05-19T02:09:58.955Z,85.13
2023-05-19T02:10:58.980Z,85.64
2023-05-19T02:11:58.997Z,85.13
2023-05-19T02:12:59.035Z,85.38
2023-05-19T02:13:59.051Z,85.74
2023-05-19T02:14:59.050Z,85.99
2023-05-19T02:15:59.098Z,85.78
2023-05-19T02:16:59.078Z,85.78
2023-05-19T02:17:59.186Z,85.99
2023-05-19T02:18:59.135Z,86.09
2023-05-19T02:19:59.130Z,85.99
2023-05-19T02:20:59.145Z,86.09
2023-05-19T02:21:59.180Z,86.40
2023-05-19T02:22:59.205Z,86.50
2023-05-19T02:23:59.189Z,86.81
2023-05-19T02:24:59.214Z,86.91
2023-05-19T02:25:59.229Z,86.95
2023-05-19T02:26:59.275Z,86.85
2023-05-19T02:27:59.265Z,87.16
2023-05-19T02:28:59.275Z,87.16
2023-05-19T02:29:59.296Z,87.67
2023-05-19T02:30:59.315Z,87.57
2023-05-19T02:31:59.365Z,87.88
2023-05-19T02:32:59.359Z,88.08
2023-05-19T02:33:59.364Z,87.77
2023-05-19T02:34:59.379Z,87.98
2023-05-19T02:35:59.394Z,88.43
2023-05-19T02:36:59.441Z,88.53
2023-05-19T02:37:59.420Z,88.53
2023-05-19T02:38:59.445Z,88.43
2023-05-19T02:39:59.451Z,88.53
2023-05-19T02:40:59.488Z,88.84
2023-05-19T02:41:59.478Z,88.53
2023-05-19T02:42:59.500Z,89.04
2023-05-19T02:43:59.512Z,89.15
2023-05-19T02:44:59.539Z,89.04
2023-05-19T02:45:59.605Z,89.66
2023-05-19T02:46:59.565Z,89.66
2023-05-19T02:47:59.648Z,89.76
2023-05-19T02:48:59.600Z,89.87
2023-05-19T02:49:59.633Z,89.56
2023-05-19T02:50:59.646Z,89.66
2023-05-19T02:51:59.651Z,89.66
2023-05-19T02:52:59.668Z,89.81
2023-05-19T02:53:59.683Z,89.50
2023-05-19T02:54:59.721Z,89.70
2023-05-19T02:55:59.718Z,89.70
2023-05-19T02:56:59.743Z,89.29
2023-05-19T02:57:59.757Z,89.66
2023-05-19T02:58:59.792Z,89.81
2023-05-19T02:59:59.806Z,89.70
2023-05-19T03:00:59.800Z,89.60
2023-05-19T03:01:59.917Z,89.91
2023-05-19T03:02:59.916Z,89.70
2023-05-19T03:03:59.919Z,89.70
2023-05-19T03:04:59.900Z,90.01
2023-05-19T03:05:59.900Z,89.60
2023-05-19T03:06:59.919Z,89.50
2023-05-19T03:07:59.928Z,89.81
2023-05-19T03:08:59.970Z,90.01
2023-05-19T03:09:59.963Z,89.81
2023-05-19T03:10:59.990Z,89.70
2023-05-19T03:12:00.009Z,89.81
2023-05-19T03:13:00.012Z,89.70
2023-05-19T03:14:00.058Z,90.12
2023-05-19T03:15:00.067Z,90.12
2023-05-19T03:16:00.183Z,90.12
2023-05-19T03:17:00.181Z,90.32
2023-05-19T03:18:00.204Z,90.53
2023-05-19T03:19:00.248Z,90.53
2023-05-19T03:20:00.222Z,90.01
2023-05-19T03:21:00.166Z,90.12
2023-05-19T03:22:00.187Z,89.91
2023-05-19T03:23:00.226Z,90.06
2023-05-19T03:24:00.214Z,90.36
2023-05-19T03:25:00.236Z,90.26
2023-05-19T03:26:00.247Z,90.47
2023-05-19T03:27:00.275Z,90.36
2023-05-19T03:28:00.307Z,90.36
2023-05-19T03:29:00.305Z,90.57
2023-05-19T03:30:00.318Z,90.78
2023-05-19T03:31:00.374Z,90.98
2023-05-19T03:32:00.477Z,90.67
2023-05-19T03:33:00.503Z,90.78
2023-05-19T03:34:00.403Z,90.88
2023-05-19T03:35:00.441Z,91.08
2023-05-19T03:36:00.440Z,90.98
2023-05-19T03:37:00.486Z,90.78
2023-05-19T03:38:00.484Z,90.78
2023-05-19T03:39:00.498Z,90.88
2023-05-19T03:40:00.526Z,90.78
2023-05-19T03:41:00.554Z,90.98
2023-05-19T03:42:00.575Z,91.19
2023-05-19T03:43:00.564Z,91.29
2023-05-19T03:44:00.584Z,91.39
2023-05-19T03:45:00.618Z,91.39
2023-05-19T03:46:00.733Z,91.49
2023-05-19T03:47:00.656Z,91.29
2023-05-19T03:48:00.688Z,91.39
2023-05-19T03:49:00.660Z,91.60
2023-05-19T03:50:00.675Z,91.29
2023-05-19T03:51:00.728Z,91.60
2023-05-19T03:52:00.704Z,91.49
2023-05-19T03:53:00.739Z,91.70
2023-05-19T03:54:00.757Z,91.60
2023-05-19T03:55:00.805Z,91.49
2023-05-19T03:56:00.830Z,91.70
2023-05-19T03:57:00.832Z,91.49
2023-05-19T03:58:00.860Z,91.49
2023-05-19T03:59:00.856Z,91.49
2023-05-19T04:00:00.873Z,91.29
2023-05-19T04:01:00.871Z,91.39
2023-05-19T04:02:00.916Z,91.80
2023-05-19T04:03:01.007Z,91.19
2023-05-19T04:04:01.059Z,91.08
2023-05-19T04:05:00.983Z,91.25
2023-05-19T04:06:01.013Z,91.04
2023-05-19T04:07:01.068Z,91.35
2023-05-19T04:08:01.038Z,91.04
2023-05-19T04:09:01.138Z,90.83
2023-05-19T04:10:01.078Z,90.73
2023-05-19T04:11:01.057Z,90.53
2023-05-19T04:12:01.059Z,90.32
2023-05-19T04:13:01.096Z,90.53
2023-05-19T04:14:01.127Z,90.59
2023-05-19T04:15:01.119Z,90.18
2023-05-19T04:16:01.163Z,90.28
2023-05-19T04:17:01.156Z,90.28
2023-05-19T04:18:01.205Z,90.08
2023-05-19T04:19:01.247Z,89.66
2023-05-19T04:20:01.252Z,89.76
2023-05-19T04:21:01.234Z,89.72
2023-05-19T04:22:01.250Z,89.21
2023-05-19T04:23:01.295Z,89.21
2023-05-19T04:24:01.313Z,88.90
2023-05-19T04:25:01.312Z,88.90
2023-05-19T04:26:01.306Z,88.59
2023-05-19T04:27:01.326Z,88.70
2023-05-19T04:28:01.358Z,89.21
2023-05-19T04:29:01.353Z,88.49
2023-05-19T04:30:01.370Z,88.80
2023-05-19T04:31:01.421Z,89.21
2023-05-19T04:32:01.415Z,89.11
2023-05-19T04:33:01.524Z,89.42
2023-05-19T04:34:01.435Z,89.42
2023-05-19T04:35:01.463Z,89.42
2023-05-19T04:36:01.475Z,89.93
2023-05-19T04:37:01.515Z,89.62
2023-05-19T04:38:01.518Z,89.31
2023-05-19T04:39:01.543Z,89.42
2023-05-19T04:40:01.553Z,89.42
2023-05-19T04:41:01.567Z,89.11
2023-05-19T04:42:01.600Z,88.80
2023-05-19T04:43:01.618Z,88.80
2023-05-19T04:44:01.625Z,89.52
2023-05-19T04:45:01.646Z,89.31
2023-05-19T04:46:01.663Z,89.11
2023-05-19T04:47:01.852Z,88.86
2023-05-19T04:48:01.718Z,89.27
2023-05-19T04:49:01.719Z,88.96
2023-05-19T04:50:01.752Z,88.96
2023-05-19T04:51:01.919Z,88.96
2023-05-19T04:52:01.764Z,88.45
2023-05-19T04:53:01.814Z,88.14
2023-05-19T04:54:01.836Z,87.94
2023-05-19T04:55:01.814Z,88.86
2023-05-19T04:56:01.847Z,89.07
2023-05-19T04:57:01.849Z,88.76
2023-05-19T04:58:01.867Z,88.00
2023-05-19T04:59:01.893Z,87.79
2023-05-19T05:00:01.902Z,87.59
2023-05-19T05:01:01.948Z,87.70
2023-05-19T05:02:01.977Z,87.59
2023-05-19T05:03:02.047Z,87.38
2023-05-19T05:04:02.011Z,88.21
2023-05-19T05:05:02.014Z,87.55
2023-05-19T05:06:02.019Z,87.34
2023-05-19T05:07:02.020Z,87.76
2023-05-19T05:08:02.040Z,86.73
2023-05-19T05:09:02.046Z,86.63
2023-05-19T05:10:02.077Z,86.93
2023-05-19T05:11:02.102Z,86.32
2023-05-19T05:12:02.095Z,86.07
2023-05-19T05:13:02.099Z,86.48
2023-05-19T05:14:02.136Z,87.10
2023-05-19T05:15:02.165Z,86.69
2023-05-19T05:16:02.213Z,86.07
2023-05-19T05:17:02.168Z,86.55
2023-05-19T05:18:02.219Z,86.65
2023-05-19T05:19:02.262Z,86.14
2023-05-19T05:20:02.232Z,85.52
2023-05-19T05:21:02.230Z,85.83
2023-05-19T05:22:02.266Z,86.04
2023-05-19T05:23:02.258Z,85.83
2023-05-19T05:24:02.318Z,86.75
2023-05-19T05:25:02.287Z,86.24
2023-05-19T05:26:02.303Z,85.63
2023-05-19T05:27:02.317Z,86.24
2023-05-19T05:28:02.346Z,85.63
2023-05-19T05:29:02.365Z,86.04
2023-05-19T05:30:02.354Z,85.93
2023-05-19T05:31:02.403Z,86.44
2023-05-19T05:32:02.410Z,86.34
2023-05-19T05:33:02.476Z,86.85
2023-05-19T05:34:02.423Z,85.83
2023-05-19T05:35:02.433Z,86.14
2023-05-19T05:36:02.462Z,86.14
2023-05-19T05:37:02.473Z,86.24
2023-05-19T05:38:02.514Z,85.42
2023-05-19T05:39:02.507Z,85.72
2023-05-19T05:40:02.520Z,85.52
2023-05-19T05:41:02.511Z,86.34
2023-05-19T05:42:02.574Z,86.61
2023-05-19T05:43:02.582Z,85.58
2023-05-19T05:44:02.784Z,85.79
2023-05-19T05:45:02.589Z,85.07
2023-05-19T05:46:02.664Z,85.52
2023-05-19T05:47:02.649Z,86.14
2023-05-19T05:48:02.727Z,86.20
2023-05-19T05:49:02.649Z,86.14
2023-05-19T05:50:02.668Z,86.14
2023-05-19T05:51:02.679Z,85.72
2023-05-19T05:52:06.428Z,85.93
2023-05-19T05:53:02.717Z,86.40
2023-05-19T05:54:02.719Z,86.51
2023-05-19T05:55:02.728Z,86.40
2023-05-19T05:56:02.784Z,86.81
2023-05-19T05:57:02.803Z,87.02
2023-05-19T05:58:02.782Z,86.61
2023-05-19T05:59:02.807Z,85.96
2023-05-19T06:00:02.816Z,84.66
2023-05-19T06:01:02.857Z,85.28
2023-05-19T06:02:02.875Z,85.44
2023-05-19T06:03:02.965Z,85.14
2023-05-19T06:04:02.877Z,85.44
2023-05-19T06:05:02.934Z,84.72
2023-05-19T06:06:03.016Z,84.79
2023-05-19T06:07:02.905Z,84.58
2023-05-19T06:08:02.920Z,84.38
2023-05-19T06:09:02.963Z,83.46
2023-05-19T06:10:02.976Z,83.56
2023-05-19T06:11:02.972Z,83.39
2023-05-19T06:12:02.976Z,84.01
2023-05-19T06:13:02.987Z,84.79
2023-05-19T06:14:03.004Z,85.10
2023-05-19T06:15:03.033Z,84.58
2023-05-19T06:16:03.067Z,84.28
2023-05-19T06:17:03.053Z,83.76
2023-05-19T06:18:03.076Z,84.38
2023-05-19T06:19:03.203Z,83.46
2023-05-19T06:20:03.116Z,83.97
2023-05-19T06:21:03.123Z,84.17
2023-05-19T06:22:03.138Z,85.40
2023-05-19T06:23:03.157Z,84.69
2023-05-19T06:24:03.181Z,83.97
2023-05-19T06:25:03.175Z,83.52
2023-05-19T06:26:03.195Z,84.03
2023-05-19T06:27:03.209Z,84.55
2023-05-19T06:28:03.221Z,84.24
2023-05-19T06:29:03.249Z,84.30
2023-05-19T06:30:03.267Z,83.59
2023-05-19T06:31:03.346Z,81.95
2023-05-19T06:32:03.282Z,81.95
2023-05-19T06:33:03.354Z,82.56
2023-05-19T06:34:03.336Z,82.87
2023-05-19T06:35:03.322Z,81.74
2023-05-19T06:36:03.359Z,81.13
2023-05-19T06:37:03.354Z,82.05
2023-05-19T06:38:03.389Z,81.51
2023-05-19T06:39:03.383Z,81.34
2023-05-19T06:40:03.396Z,81.24
2023-05-19T06:41:03.404Z,81.85
2023-05-19T06:42:03.444Z,81.20
2023-05-19T06:43:03.452Z,81.71
2023-05-19T06:44:03.454Z,81.40
2023-05-19T06:45:03.468Z,81.77
2023-05-19T06:46:03.512Z,79.83
2023-05-19T06:47:03.585Z,81.05
2023-05-19T06:48:03.582Z,81.02
2023-05-19T06:49:03.528Z,80.41
2023-05-19T06:50:03.548Z,80.82
2023-05-19T06:51:03.552Z,80.30
2023-05-19T06:52:03.594Z,79.90
2023-05-19T06:53:03.615Z,79.49
2023-05-19T06:54:03.606Z,79.28
2023-05-19T06:55:03.617Z,79.59
2023-05-19T06:56:03.632Z,79.18
2023-05-19T06:57:03.645Z,78.88
2023-05-19T06:58:03.664Z,79.69
2023-05-19T06:59:03.672Z,79.14
2023-05-19T07:00:03.692Z,79.55
2023-05-19T07:01:03.719Z,79.14
2023-05-19T07:02:03.794Z,79.35
2023-05-19T07:03:03.818Z,78.30
2023-05-19T07:04:03.815Z,77.72
2023-05-19T07:05:03.772Z,78.33
2023-05-19T07:06:05.658Z,79.14
2023-05-19T07:07:03.796Z,79.35
2023-05-19T07:08:03.823Z,77.41
2023-05-19T07:09:03.823Z,77.00
2023-05-19T07:10:03.868Z,78.02
2023-05-19T07:11:03.884Z,78.43
2023-05-19T07:12:03.879Z,77.98
2023-05-19T07:13:03.896Z,76.80
2023-05-19T07:14:03.909Z,76.59
2023-05-19T07:15:03.937Z,77.86
2023-05-19T07:16:03.990Z,78.37
2023-05-19T07:17:03.967Z,79.49
2023-05-19T07:18:04.021Z,79.69
2023-05-19T07:19:03.987Z,79.18
2023-05-19T07:20:04.005Z,79.39
2023-05-19T07:21:04.010Z,79.18
2023-05-19T07:22:04.018Z,80.00
2023-05-19T07:23:04.035Z,80.44
2023-05-19T07:24:04.065Z,80.75
2023-05-19T07:25:04.080Z,80.04
2023-05-19T07:26:04.090Z,81.67
2023-05-19T07:27:04.089Z,81.37
2023-05-19T07:28:04.170Z,81.67
2023-05-19T07:29:04.149Z,82.28
2023-05-19T07:30:04.153Z,82.69
2023-05-19T07:31:04.154Z,81.51
2023-05-19T07:32:04.271Z,80.48
2023-05-19T07:33:04.220Z,80.99
2023-05-19T07:34:04.704Z,79.05
2023-05-19T07:35:04.217Z,79.39
2023-05-19T07:36:04.244Z,78.99
2023-05-19T07:37:04.259Z,78.88
2023-05-19T07:38:04.288Z,79.70
2023-05-19T07:39:04.313Z,79.60
2023-05-19T07:40:04.295Z,78.88
2023-05-19T07:41:04.359Z,78.88
2023-05-19T07:42:04.348Z,79.25
2023-05-19T07:43:04.374Z,79.25
2023-05-19T07:44:04.358Z,79.66
2023-05-19T07:45:04.371Z,80.48
2023-05-19T07:46:04.416Z,79.97
2023-05-19T07:47:04.412Z,79.97
2023-05-19T07:48:04.492Z,80.79
2023-05-19T07:49:04.442Z,79.77
2023-05-19T07:50:04.457Z,79.05
2023-05-19T07:51:04.497Z,79.77
2023-05-19T07:52:04.500Z,79.46
2023-05-19T07:53:04.505Z,79.46
2023-05-19T07:54:04.509Z,79.02
2023-05-19T07:55:04.518Z,80.55
2023-05-19T07:56:04.529Z,79.83
2023-05-19T07:57:04.564Z,79.73
2023-05-19T07:58:04.561Z,80.04
2023-05-19T07:59:04.573Z,80.34
2023-05-19T08:00:04.592Z,81.43
2023-05-19T08:01:04.605Z,80.20
2023-05-19T08:02:04.643Z,80.10
2023-05-19T08:03:04.704Z,79.28
2023-05-19T08:04:04.791Z,79.59
2023-05-19T08:05:04.670Z,79.18
2023-05-19T08:06:04.690Z,79.39
2023-05-19T08:07:04.720Z,79.39
2023-05-19T08:08:04.723Z,79.39
2023-05-19T08:09:04.730Z,80.20
2023-05-19T08:10:04.751Z,78.98
2023-05-19T08:11:04.782Z,78.57
2023-05-19T08:12:04.779Z,78.50
2023-05-19T08:13:04.786Z,79.22
2023-05-19T08:14:04.815Z,79.93
2023-05-19T08:15:04.828Z,79.43
2023-05-19T08:16:04.892Z,80.10
2023-05-19T08:17:04.859Z,78.47
2023-05-19T08:18:04.970Z,78.67
2023-05-19T08:19:04.899Z,78.98
2023-05-19T08:20:04.936Z,79.18
2023-05-19T08:21:04.918Z,79.08
2023-05-19T08:22:04.932Z,79.49
2023-05-19T08:23:04.942Z,79.18
2023-05-19T08:24:04.973Z,79.08
2023-05-19T08:25:04.993Z,79.69
2023-05-19T08:26:04.994Z,79.39
2023-05-19T08:27:05.028Z,78.77
2023-05-19T08:28:05.020Z,79.08
2023-05-19T08:29:05.045Z,78.47
2023-05-19T08:30:05.070Z,78.98
2023-05-19T08:31:05.091Z,78.16
2023-05-19T08:32:05.083Z,78.16
2023-05-19T08:33:05.139Z,78.77
2023-05-19T08:34:05.128Z,78.57
2023-05-19T08:35:05.135Z,79.49
2023-05-19T08:36:05.141Z,78.81
2023-05-19T08:37:05.149Z,79.52
2023-05-19T08:38:05.186Z,79.08
2023-05-19T08:39:05.228Z,80.41
2023-05-19T08:40:05.207Z,79.59
2023-05-19T08:41:05.212Z,79.28
2023-05-19T08:42:05.233Z,78.16
2023-05-19T08:43:05.241Z,78.37
2023-05-19T08:44:05.282Z,78.98
2023-05-19T08:45:05.270Z,78.67
2023-05-19T08:46:05.290Z,78.88
2023-05-19T08:47:05.400Z,78.47
2023-05-19T08:48:05.462Z,78.64
2023-05-19T08:49:05.363Z,79.25
2023-05-19T08:50:05.358Z,77.41
2023-05-19T08:51:05.377Z,77.62
2023-05-19T08:52:05.407Z,78.23
2023-05-19T08:53:05.448Z,77.72
2023-05-19T08:54:05.417Z,78.23
2023-05-19T08:55:05.421Z,77.89
2023-05-19T08:56:05.436Z,77.58
2023-05-19T08:57:05.455Z,76.76
2023-05-19T08:58:05.490Z,76.46
2023-05-19T08:59:05.478Z,77.07
2023-05-19T09:00:05.531Z,76.56
2023-05-19T09:01:05.536Z,76.87
2023-05-19T09:02:05.551Z,75.54
2023-05-19T09:03:17.568Z,76.15
2023-05-19T09:04:05.726Z,76.25
2023-05-19T09:05:05.711Z,75.23
2023-05-19T09:06:05.631Z,73.81
2023-05-19T09:07:05.640Z,73.94
2023-05-19T09:08:05.643Z,74.66
2023-05-19T09:09:05.647Z,74.66
2023-05-19T09:10:05.661Z,74.73
2023-05-19T09:11:05.688Z,76.25
2023-05-19T09:12:05.711Z,74.73
2023-05-19T09:13:05.705Z,75.03
2023-05-19T09:14:05.766Z,75.54
2023-05-19T09:15:05.733Z,74.93
2023-05-19T09:16:05.810Z,74.73
2023-05-19T09:17:06.013Z,74.11
2023-05-19T09:18:05.810Z,74.90
2023-05-19T09:19:05.812Z,74.49
2023-05-19T09:20:05.821Z,73.88
2023-05-19T09:21:05.834Z,73.88
2023-05-19T09:22:05.862Z,73.16
2023-05-19T09:23:05.865Z,74.69
2023-05-19T09:24:05.877Z,72.55
2023-05-19T09:25:05.917Z,72.86
2023-05-19T09:26:05.916Z,74.38
2023-05-19T09:27:05.929Z,72.96
2023-05-19T09:28:05.945Z,74.49
2023-05-19T09:29:05.960Z,74.76
2023-05-19T09:30:05.992Z,74.25
2023-05-19T09:31:06.011Z,73.60
2023-05-19T09:32:06.065Z,74.41
2023-05-19T09:33:06.080Z,71.87
2023-05-19T09:34:06.051Z,72.99
2023-05-19T09:35:06.086Z,74.08
2023-05-19T09:36:06.226Z,71.94
2023-05-19T09:37:06.090Z,72.34
2023-05-19T09:38:06.098Z,71.94
2023-05-19T09:39:06.138Z,72.45
2023-05-19T09:40:06.164Z,72.08
2023-05-19T09:41:06.159Z,71.87
2023-05-19T09:42:06.171Z,73.02
2023-05-19T09:43:06.197Z,74.45
2023-05-19T09:44:06.218Z,74.65
2023-05-19T09:45:06.284Z,75.67
2023-05-19T09:46:06.298Z,76.49
2023-05-19T09:47:06.252Z,74.58
2023-05-19T09:48:06.286Z,75.81
2023-05-19T09:49:06.293Z,76.01
2023-05-19T09:50:06.285Z,76.87
2023-05-19T09:51:06.368Z,77.07
2023-05-19T09:52:06.316Z,77.17
2023-05-19T09:53:06.332Z,77.58
2023-05-19T09:54:06.365Z,76.66
2023-05-19T09:55:06.375Z,77.78
2023-05-19T09:56:06.385Z,77.72
2023-05-19T09:57:08.133Z,77.78
2023-05-19T09:58:06.421Z,78.60
2023-05-19T09:59:06.429Z,78.91
2023-05-19T10:00:06.443Z,78.70
2023-05-19T10:01:06.566Z,77.17
2023-05-19T10:02:06.460Z,75.95
2023-05-19T10:03:06.557Z,77.27
2023-05-19T10:04:06.493Z,77.07
2023-05-19T10:05:06.577Z,77.78
2023-05-19T10:06:06.527Z,76.87
2023-05-19T10:07:06.549Z,77.92
2023-05-19T10:08:06.580Z,78.09
2023-05-19T10:09:06.561Z,77.27
2023-05-19T10:10:06.589Z,77.17
2023-05-19T10:11:06.622Z,77.58
2023-05-19T10:12:06.639Z,77.78
2023-05-19T10:13:06.650Z,76.97
2023-05-19T10:14:06.645Z,76.73
2023-05-19T10:15:06.654Z,77.34
2023-05-19T10:16:06.733Z,76.22
2023-05-19T10:17:06.736Z,76.46
2023-05-19T10:18:06.782Z,77.17
2023-05-19T10:19:06.750Z,76.62
2023-05-19T10:20:06.736Z,76.83
2023-05-19T10:21:06.767Z,76.42
2023-05-19T10:22:06.765Z,75.30
2023-05-19T10:23:06.769Z,76.18
2023-05-19T10:24:06.781Z,75.10
2023-05-19T10:25:06.803Z,76.42
2023-05-19T10:26:06.881Z,76.32
2023-05-19T10:27:06.825Z,76.12
2023-05-19T10:28:06.833Z,77.24
2023-05-19T10:29:06.854Z,77.14
2023-05-19T10:30:08.283Z,77.40
2023-05-19T10:31:06.887Z,77.20
2023-05-19T10:32:06.945Z,76.69
2023-05-19T10:33:06.926Z,76.49
2023-05-19T10:34:06.925Z,76.49
2023-05-19T10:35:06.953Z,76.83
2023-05-19T10:36:06.967Z,76.53
2023-05-19T10:37:06.974Z,77.95
2023-05-19T10:38:06.977Z,78.26
2023-05-19T10:39:06.995Z,78.22
2023-05-19T10:40:07.040Z,77.30
2023-05-19T10:41:07.023Z,77.20
2023-05-19T10:42:07.038Z,76.90
2023-05-19T10:43:07.055Z,77.91
2023-05-19T10:44:07.063Z,77.10
2023-05-19T10:45:07.105Z,77.71
2023-05-19T10:46:07.099Z,76.39
2023-05-19T10:47:07.229Z,77.20
2023-05-19T10:48:07.168Z,76.93
2023-05-19T10:49:07.170Z,78.05
2023-05-19T10:50:07.203Z,76.83
2023-05-19T10:51:07.234Z,76.62
2023-05-19T10:52:07.199Z,75.30
2023-05-19T10:53:07.220Z,75.03
2023-05-19T10:54:07.247Z,75.34
2023-05-19T10:55:07.256Z,75.74
2023-05-19T10:56:07.267Z,76.97
2023-05-19T10:57:07.275Z,77.27
2023-05-19T10:58:07.289Z,77.27
2023-05-19T10:59:07.324Z,75.95
2023-05-19T11:00:07.325Z,77.48
2023-05-19T11:01:07.351Z,77.64
2023-05-19T11:02:07.471Z,78.66
2023-05-19T11:03:07.440Z,77.34
2023-05-19T11:04:07.569Z,77.30
2023-05-19T11:05:07.424Z,77.91
2023-05-19T11:06:07.416Z,79.34
2023-05-19T11:07:07.441Z,77.30
2023-05-19T11:08:07.473Z,78.22
2023-05-19T11:09:07.471Z,78.32
2023-05-19T11:10:07.483Z,78.93
2023-05-19T11:11:07.497Z,77.81
2023-05-19T11:12:07.525Z,76.22
2023-05-19T11:13:07.540Z,76.62
2023-05-19T11:14:07.534Z,77.14
2023-05-19T11:15:07.556Z,77.55
2023-05-19T11:16:07.623Z,77.55
2023-05-19T11:17:07.632Z,77.75
2023-05-19T11:18:07.618Z,76.25
2023-05-19T11:19:07.656Z,76.87
2023-05-19T11:20:07.624Z,78.30
2023-05-19T11:21:07.702Z,78.53
2023-05-19T11:22:07.675Z,79.04
2023-05-19T11:23:07.724Z,79.04
2023-05-19T11:24:07.736Z,78.64
2023-05-19T11:25:07.688Z,78.33
2023-05-19T11:26:07.713Z,78.33
2023-05-19T11:27:07.736Z,79.41
2023-05-19T11:28:07.736Z,79.32
2023-05-19T11:29:07.749Z,78.50
2023-05-19T11:30:07.774Z,78.60
2023-05-19T11:31:07.815Z,77.98
2023-05-19T11:32:07.861Z,76.97
2023-05-19T11:33:07.915Z,78.50
2023-05-19T11:34:07.830Z,77.48
2023-05-19T11:35:07.859Z,77.17
2023-05-19T11:36:07.881Z,78.50
2023-05-19T11:37:07.884Z,77.68
2023-05-19T11:38:07.872Z,78.09
2023-05-19T11:39:07.892Z,78.60
2023-05-19T11:40:07.915Z,79.17
2023-05-19T11:41:07.953Z,77.85
2023-05-19T11:42:07.932Z,77.14
2023-05-19T11:43:07.948Z,75.81
2023-05-19T11:44:07.987Z,76.83
2023-05-19T11:45:07.974Z,76.53
2023-05-19T11:46:08.233Z,77.24
2023-05-19T11:47:08.052Z,76.83
2023-05-19T11:48:08.180Z,77.64
2023-05-19T11:49:08.138Z,77.64
2023-05-19T11:50:08.101Z,76.93
2023-05-19T11:51:08.144Z,78.09
2023-05-19T11:52:08.135Z,77.48
2023-05-19T11:53:08.110Z,77.89
2023-05-19T11:54:08.205Z,77.37
2023-05-19T11:55:08.146Z,78.60
2023-05-19T11:56:08.165Z,79.00
2023-05-19T11:57:08.176Z,78.05
2023-05-19T11:58:08.167Z,77.55
2023-05-19T11:59:08.213Z,78.16
2023-05-19T12:00:08.277Z,77.85
2023-05-19T12:01:08.240Z,78.66
2023-05-19T12:02:08.296Z,78.26
2023-05-19T12:03:08.704Z,77.64
2023-05-19T12:04:08.309Z,77.64
2023-05-19T12:05:08.329Z,78.26
2023-05-19T12:06:08.370Z,77.14
2023-05-19T12:07:08.311Z,77.03
2023-05-19T12:08:08.323Z,77.89
2023-05-19T12:09:08.354Z,78.91
2023-05-19T12:10:08.470Z,78.36
2023-05-19T12:11:08.364Z,79.38
2023-05-19T12:12:08.566Z,77.91
2023-05-19T12:13:08.395Z,77.10
2023-05-19T12:14:08.380Z,78.22
2023-05-19T12:15:08.398Z,78.42
2023-05-19T12:16:08.457Z,77.20
2023-05-19T12:17:08.450Z,78.32
2023-05-19T12:18:08.567Z,76.90
2023-05-19T12:19:08.483Z,76.96
2023-05-19T12:20:08.472Z,77.87
2023-05-19T12:21:08.517Z,78.19
2023-05-19T12:22:08.574Z,77.37
2023-05-19T12:23:08.531Z,76.96
2023-05-19T12:24:08.527Z,75.88
2023-05-19T12:25:08.547Z,76.28
2023-05-19T12:26:08.549Z,76.49
2023-05-19T12:27:08.592Z,77.61
2023-05-19T12:28:08.663Z,77.00
2023-05-19T12:29:08.605Z,76.49
2023-05-19T12:30:08.626Z,77.30
2023-05-19T12:31:08.698Z,77.10
2023-05-19T12:32:08.750Z,77.61
2023-05-19T12:33:08.759Z,77.10
2023-05-19T12:34:08.678Z,77.30
2023-05-19T12:35:08.702Z,77.61
2023-05-19T12:36:08.735Z,77.20
2023-05-19T12:37:08.731Z,76.59
2023-05-19T12:38:08.745Z,77.98
2023-05-19T12:39:08.760Z,77.47
2023-05-19T12:40:08.866Z,75.84
2023-05-19T12:41:08.805Z,76.45
2023-05-19T12:42:08.820Z,76.25
2023-05-19T12:43:08.816Z,77.03
2023-05-19T12:44:08.829Z,77.33
2023-05-19T12:45:08.866Z,76.72
2023-05-19T12:46:08.903Z,75.81
2023-05-19T12:47:08.884Z,74.21
2023-05-19T12:48:08.915Z,75.43
2023-05-19T12:49:08.906Z,74.52
2023-05-19T12:50:09.076Z,74.93
2023-05-19T12:51:08.940Z,74.72
2023-05-19T12:52:12.769Z,75.02
2023-05-19T12:53:08.976Z,75.60